Portada
METAR-TAF:

METAR-TAF

Aeropuertos :

Aeropuerto de Madeira

Funchal, Madeira, Portugal

latitud: 32-41-52N, longitud: 016-46-28W, altitud: 59 m

Observación

El informe se hizo hace 1 hora y 6 minutos, a las 05:00 UTC
Viento 2 kt con dirección variable
Temperatura 21°C
Humedad 69%
Presión 1016 hPa
Visibilidad 10 km o más
Escasas nubes a una altura de 1600 ft

METAR: LPMA 210500Z VRB02KT 9999 FEW016 21/15 Q1016

Hora: 07:06 (06:06 UTC)

Pronóstico

El informe se hizo hace 7 horas y 6 minutos, a las 23:00 UTC
Pronóstico válido del 21 a las 00 UTC al 21 a las 24 UTC
Viento 5 kt con dirección variable
Visibilidad 10 km o más
Escasas nubes a una altura de 1600 ft
Temporalmente
del 21 a las 08 UTC al 21 a las 16 UTC
Viento 8 kt del sur-suroeste
Temporalmente
del 21 a las 16 UTC al 21 a las 21 UTC
Viento 10 kt del norte

TAF: LPMA 202300Z 2100/2124 VRB05KT 9999 FEW016 TEMPO 2108/2116 20008KT TEMPO 2116/2121 01010KT

Observaciones y pronósticos meteorológicos de más de 4000 aeropuertos (mensajes METAR y TAF).

Los puntos amarillos y rojos representan las estaciones disponibles.

Ponga el ratón en el punto deseado para ver el nombre de la estación.

Haga clic para ver las observaciones y los pronósticos meteorológicos.

Para cambiar el mapa : haga clic en los botones verdes con una cruz de color negro para hacer un zoom, en el botón verde con un guión para alejar o en las flechas verdes para mapas adyacentes.


METAR-TAF: